Time;durP1;ratioP1;P1;durP2;ratioP2;P2;SDS_P1;SDS_P2;PMS_P1;PMS_P2;Temp;Humidity;BMP_temperature;BMP_pressure;BME280_temperature;BME280_humidity;BME280_pressure;Samples;Min_cycle;Max_cycle;Signal;HPM_P1;HPM_P2
2021/01/12 00:00:19;;;;;;;77.43;31.73;;;-2.30;99.90;;;;;;4363715;33;20204;-69
2021/01/12 00:02:46;;;;;;;76.73;30.97;;;-2.30;99.90;;;;;;4363884;33;20196;-70
2021/01/12 00:05:13;;;;;;;72.87;29.67;;;-2.30;99.90;;;;;;4364000;33;20345;-69
2021/01/12 00:07:40;;;;;;;74.07;29.87;;;-2.40;99.90;;;;;;4365193;33;20156;-70
2021/01/12 00:10:08;;;;;;;67.67;28.87;;;-2.40;99.90;;;;;;4364982;33;20198;-69
2021/01/12 00:12:34;;;;;;;75.83;30.70;;;-2.40;99.90;;;;;;4365073;33;20466;-70
2021/01/12 00:15:02;;;;;;;71.50;30.63;;;-2.30;99.90;;;;;;4363805;33;20537;-69
2021/01/12 00:17:28;;;;;;;72.27;29.47;;;-2.40;99.90;;;;;;4362959;33;20369;-69
2021/01/12 00:19:55;;;;;;;76.70;29.43;;;-2.40;99.90;;;;;;4363464;33;20168;-70
2021/01/12 00:22:21;;;;;;;70.27;29.67;;;-2.40;99.90;;;;;;4366728;32;20129;-69
2021/01/12 00:24:49;;;;;;;76.80;30.23;;;-2.40;99.90;;;;;;4366655;32;20183;-70
2021/01/12 00:27:20;;;;;;;66.43;28.63;;;-2.40;99.90;;;;;;4366568;32;20175;-69
2021/01/12 00:29:46;;;;;;;65.87;29.07;;;-2.40;99.90;;;;;;4366485;32;20394;-70
2021/01/12 00:32:20;;;;;;;77.00;29.60;;;-2.30;99.90;;;;;;4366646;32;20140;-70
2021/01/12 00:34:48;;;;;;;65.40;28.50;;;-2.40;99.90;;;;;;4366374;32;20136;-70
2021/01/12 00:37:25;;;;;;;68.47;28.60;;;-2.30;99.90;;;;;;4366312;32;20150;-70
2021/01/12 00:39:52;;;;;;;68.93;29.33;;;-2.30;99.90;;;;;;4366402;32;20151;-70
2021/01/12 00:42:19;;;;;;;72.00;29.97;;;-2.30;99.90;;;;;;4367876;32;20471;-70
2021/01/12 00:44:46;;;;;;;71.90;29.90;;;-2.40;99.90;;;;;;4366945;32;20176;-70
2021/01/12 00:47:13;;;;;;;70.63;29.63;;;-2.40;99.90;;;;;;4367433;32;20379;-70
2021/01/12 00:49:39;;;;;;;60.30;27.63;;;-2.40;99.90;;;;;;4366296;32;20148;-70
2021/01/12 00:52:12;;;;;;;71.60;28.93;;;-2.40;99.90;;;;;;4367457;32;20172;-70
2021/01/12 00:54:39;;;;;;;65.40;27.23;;;-2.50;99.90;;;;;;4367829;32;20164;-70
2021/01/12 00:57:05;;;;;;;65.47;27.97;;;-2.60;99.90;;;;;;4366120;32;20228;-70
2021/01/12 00:59:34;;;;;;;67.50;27.97;;;-2.60;99.90;;;;;;4367387;32;20171;-69
2021/01/12 01:02:02;;;;;;;70.83;28.43;;;-2.60;99.90;;;;;;4366509;32;20194;-69
2021/01/12 01:04:29;;;;;;;67.93;28.57;;;-2.50;99.90;;;;;;4365934;32;20191;-69
2021/01/12 01:06:56;;;;;;;73.63;29.53;;;-2.50;99.90;;;;;;4366176;32;20175;-69
2021/01/12 01:09:23;;;;;;;76.17;30.83;;;-2.60;99.90;;;;;;4367351;32;20187;-69
2021/01/12 01:11:50;;;;;;;72.63;28.53;;;-2.50;99.90;;;;;;4366103;32;20431;-70
2021/01/12 01:14:18;;;;;;;73.20;28.67;;;-2.60;99.90;;;;;;4367243;32;20146;-69
2021/01/12 01:16:44;;;;;;;66.93;28.37;;;-2.60;99.90;;;;;;4366266;32;20436;-69
2021/01/12 01:19:11;;;;;;;71.13;28.90;;;-2.60;99.90;;;;;;4365736;32;20148;-69
2021/01/12 01:21:38;;;;;;;71.33;29.60;;;-2.60;99.90;;;;;;4365739;32;20175;-69
2021/01/12 01:24:08;;;;;;;67.00;27.53;;;-2.60;99.90;;;;;;4365900;32;20191;-69
2021/01/12 01:26:35;;;;;;;68.10;28.00;;;-2.60;99.90;;;;;;4365917;32;20455;-69
2021/01/12 01:29:02;;;;;;;66.20;28.80;;;-2.70;99.90;;;;;;4365850;32;20178;-69
2021/01/12 01:31:39;;;;;;;69.23;28.50;;;-2.70;99.90;;;;;;4365614;32;20183;-69
2021/01/12 01:34:06;;;;;;;69.67;28.27;;;-2.70;99.90;;;;;;4366346;32;20215;-69
2021/01/12 01:36:33;;;;;;;69.73;27.93;;;-2.60;99.90;;;;;;4366915;32;20200;-69
2021/01/12 01:38:59;;;;;;;68.23;28.63;;;-2.60;99.90;;;;;;4367244;32;20152;-69
2021/01/12 01:41:26;;;;;;;67.40;27.13;;;-2.70;99.90;;;;;;4365540;32;20211;-69
2021/01/12 01:43:53;;;;;;;67.90;29.33;;;-2.70;99.90;;;;;;4365594;32;20184;-69
2021/01/12 01:46:20;;;;;;;70.90;28.97;;;-2.70;99.90;;;;;;4365706;32;20189;-69
2021/01/12 01:48:47;;;;;;;66.13;28.40;;;-2.70;99.90;;;;;;4367111;32;20175;-69
2021/01/12 01:51:15;;;;;;;64.73;27.37;;;-2.60;99.90;;;;;;4366990;32;20215;-69
2021/01/12 01:53:42;;;;;;;72.37;28.17;;;-2.60;99.90;;;;;;4365497;32;20172;-69
2021/01/12 01:56:08;;;;;;;66.10;27.60;;;-2.70;99.90;;;;;;4366658;32;20200;-69
2021/01/12 01:58:42;;;;;;;67.23;26.97;;;-2.70;99.90;;;;;;4365596;32;20188;-69
2021/01/12 02:01:09;;;;;;;62.60;27.37;;;-2.70;99.90;;;;;;4365114;32;20144;-69
2021/01/12 02:03:42;;;;;;;67.90;28.40;;;-2.70;99.90;;;;;;4366369;32;20219;-70
2021/01/12 02:06:18;;;;;;;65.37;27.00;;;-2.70;99.90;;;;;;4366636;32;20170;-69
2021/01/12 02:09:07;;;;;;;66.87;28.13;;;-2.70;99.90;;;;;;4365803;32;20155;-69
2021/01/12 02:11:40;;;;;;;67.57;26.83;;;-2.80;99.90;;;;;;4366491;32;20175;-69
2021/01/12 02:14:13;;;;;;;64.10;27.37;;;-2.80;99.90;;;;;;4365173;32;20442;-69
2021/01/12 02:16:41;;;;;;;62.77;26.47;;;-2.80;99.90;;;;;;4365421;32;20164;-70
2021/01/12 02:19:17;;;;;;;62.53;26.30;;;-2.80;99.90;;;;;;4366322;32;20199;-69
2021/01/12 02:21:49;;;;;;;70.03;27.33;;;-2.80;99.90;;;;;;4366472;32;20498;-69
2021/01/12 02:24:16;;;;;;;65.13;26.77;;;-2.80;99.90;;;;;;4367054;32;20428;-70
2021/01/12 02:26:43;;;;;;;61.53;26.80;;;-2.80;99.90;;;;;;4365929;32;20203;-69
2021/01/12 02:29:09;;;;;;;61.13;25.83;;;-2.70;99.90;;;;;;4366295;32;20231;-68
2021/01/12 02:31:36;;;;;;;66.47;26.83;;;-2.70;99.90;;;;;;4364916;32;20418;-69
2021/01/12 02:34:05;;;;;;;65.20;27.37;;;-2.70;99.90;;;;;;4364687;32;20164;-69
2021/01/12 02:36:33;;;;;;;64.97;25.87;;;-2.70;99.90;;;;;;4363992;32;20159;-68
2021/01/12 02:39:00;;;;;;;64.97;25.37;;;-2.70;99.90;;;;;;4364747;32;20143;-70
2021/01/12 02:41:32;;;;;;;66.27;26.17;;;-2.80;99.90;;;;;;4364753;32;20172;-70
2021/01/12 02:44:00;;;;;;;56.97;24.27;;;-2.80;99.90;;;;;;4364072;32;20153;-69
2021/01/12 02:46:26;;;;;;;61.37;25.73;;;-2.80;99.90;;;;;;4364748;32;20458;-70
2021/01/12 02:48:53;;;;;;;66.67;25.40;;;-2.80;99.90;;;;;;4365575;32;20482;-69
2021/01/12 02:51:20;;;;;;;57.47;23.73;;;-2.80;99.90;;;;;;4365947;32;20449;-69
2021/01/12 02:53:46;;;;;;;63.57;25.87;;;-2.90;99.90;;;;;;4364554;32;20204;-70
2021/01/12 02:56:13;;;;;;;65.30;26.43;;;-2.90;99.90;;;;;;4365502;32;20142;-69
2021/01/12 02:58:39;;;;;;;60.23;24.57;;;-2.90;99.90;;;;;;4365948;32;20437;-70
2021/01/12 03:01:05;;;;;;;62.10;24.97;;;-2.90;99.90;;;;;;4365905;32;20199;-69
2021/01/12 03:03:33;;;;;;;58.93;25.90;;;-2.90;99.90;;;;;;4365997;32;20202;-69
2021/01/12 03:06:00;;;;;;;59.77;25.13;;;-2.90;99.90;;;;;;4365883;32;20192;-69
2021/01/12 03:08:26;;;;;;;57.37;25.30;;;-2.90;99.90;;;;;;4364426;32;20470;-70
2021/01/12 03:10:53;;;;;;;58.77;24.67;;;-2.90;99.90;;;;;;4365945;32;20194;-69
2021/01/12 03:13:19;;;;;;;57.67;24.23;;;-2.90;99.90;;;;;;4365773;32;20397;-69
2021/01/12 03:15:46;;;;;;;63.03;26.03;;;-2.90;99.90;;;;;;4365905;32;20225;-70
2021/01/12 03:18:12;;;;;;;59.97;24.67;;;-2.90;99.90;;;;;;4365156;32;20179;-70
2021/01/12 03:20:38;;;;;;;59.83;24.80;;;-2.90;99.90;;;;;;4365826;32;20214;-69
2021/01/12 03:23:05;;;;;;;65.20;25.60;;;-2.80;99.90;;;;;;4364267;32;20189;-69
2021/01/12 03:25:32;;;;;;;60.63;24.73;;;-2.90;99.90;;;;;;4364280;32;20471;-69
2021/01/12 03:27:58;;;;;;;58.30;24.17;;;-2.90;99.90;;;;;;4364772;32;20414;-69
2021/01/12 03:30:25;;;;;;;58.47;24.50;;;-2.90;99.90;;;;;;4364191;32;20147;-70
2021/01/12 03:32:52;;;;;;;55.00;23.00;;;-2.90;99.90;;;;;;4364233;32;20196;-70
2021/01/12 03:35:20;;;;;;;61.77;23.63;;;-2.90;99.90;;;;;;4364235;32;20178;-69
2021/01/12 03:37:47;;;;;;;56.67;24.03;;;-2.90;99.90;;;;;;4364394;32;20211;-69
2021/01/12 03:40:14;;;;;;;59.90;24.00;;;-2.90;99.90;;;;;;4364186;32;20160;-70
2021/01/12 03:42:40;;;;;;;56.03;23.83;;;-2.90;99.90;;;;;;4364990;32;20149;-69
2021/01/12 03:45:07;;;;;;;57.83;23.80;;;-2.90;99.90;;;;;;4365586;32;20140;-69
2021/01/12 03:47:34;;;;;;;55.57;23.10;;;-2.90;99.90;;;;;;4364138;32;20183;-69
2021/01/12 03:50:02;;;;;;;59.40;23.60;;;-2.90;99.90;;;;;;4364137;32;20149;-69
2021/01/12 03:52:29;;;;;;;55.27;24.43;;;-2.80;99.90;;;;;;4365077;32;20576;-69
2021/01/12 03:54:56;;;;;;;58.53;24.47;;;-2.80;99.90;;;;;;4365609;32;20241;-69
2021/01/12 03:57:22;;;;;;;55.07;23.40;;;-2.90;99.90;;;;;;4363510;33;20203;-69
2021/01/12 03:59:49;;;;;;;57.77;23.77;;;-2.90;99.90;;;;;;4363920;33;20189;-69
2021/01/12 04:02:15;;;;;;;57.93;23.87;;;-2.90;99.90;;;;;;4364006;33;20422;-69
2021/01/12 04:04:43;;;;;;;59.27;24.20;;;-2.90;99.90;;;;;;4364018;33;20229;-69
2021/01/12 04:07:09;;;;;;;58.33;23.43;;;-3.00;99.90;;;;;;4365415;33;20150;-69
2021/01/12 04:09:36;;;;;;;57.60;23.80;;;-3.00;99.90;;;;;;4364945;33;20487;-69
2021/01/12 04:12:03;;;;;;;60.17;23.17;;;-3.00;99.90;;;;;;4365463;33;20471;-70
2021/01/12 04:14:29;;;;;;;61.30;23.60;;;-3.00;99.90;;;;;;4363764;33;20198;-69
2021/01/12 04:16:55;;;;;;;54.57;23.53;;;-3.00;99.90;;;;;;4365345;33;20445;-69
2021/01/12 04:19:22;;;;;;;58.90;24.40;;;-2.90;99.90;;;;;;4365327;33;20148;-69
2021/01/12 04:21:48;;;;;;;60.87;23.10;;;-2.90;99.90;;;;;;4363931;33;20191;-68
2021/01/12 04:24:15;;;;;;;59.47;23.40;;;-2.80;99.90;;;;;;4365315;33;20153;-69
2021/01/12 04:26:41;;;;;;;56.87;22.70;;;-2.80;99.90;;;;;;4364030;33;20145;-70
2021/01/12 04:29:08;;;;;;;57.13;23.73;;;-2.80;99.90;;;;;;4365297;33;20194;-69
2021/01/12 04:31:34;;;;;;;50.63;22.83;;;-2.80;99.90;;;;;;4363839;33;20200;-69
2021/01/12 04:34:01;;;;;;;58.40;23.17;;;-2.80;99.90;;;;;;4365250;33;20168;-69
2021/01/12 04:36:27;;;;;;;51.43;22.30;;;-2.80;99.90;;;;;;4363822;33;20153;-68
2021/01/12 04:38:54;;;;;;;59.90;23.67;;;-2.80;99.90;;;;;;4365223;33;20170;-69
2021/01/12 04:41:20;;;;;;;55.77;22.97;;;-2.80;99.90;;;;;;4363733;33;20171;-69
2021/01/12 04:43:47;;;;;;;55.13;22.03;;;-2.80;99.90;;;;;;4363555;33;20430;-70
2021/01/12 04:46:13;;;;;;;53.43;22.57;;;-2.80;99.90;;;;;;4363701;33;20152;-69
2021/01/12 04:48:40;;;;;;;58.60;23.37;;;-2.80;99.90;;;;;;4364835;33;20152;-69
2021/01/12 04:51:08;;;;;;;56.40;23.57;;;-2.70;99.90;;;;;;4365077;33;20188;-69
2021/01/12 04:53:39;;;;;;;55.93;22.60;;;-2.90;99.90;;;;;;4363453;33;20523;-69
2021/01/12 04:56:06;;;;;;;61.73;23.07;;;-2.80;99.90;;;;;;4364966;33;20555;-68
2021/01/12 04:58:43;;;;;;;56.13;23.73;;;-2.70;99.90;;;;;;4365254;33;20159;-69
2021/01/12 05:01:37;;;;;;;56.77;23.00;;;-2.70;99.90;;;;;;4365066;33;20153;-69
2021/01/12 05:04:04;;;;;;;56.77;23.77;;;-2.70;99.90;;;;;;4361942;33;20199;-69
2021/01/12 05:06:31;;;;;;;60.13;25.07;;;-2.60;99.90;;;;;;4363830;33;20241;-69
2021/01/12 05:08:57;;;;;;;55.07;22.90;;;-2.70;99.90;;;;;;4364910;32;20198;-69
2021/01/12 05:11:35;;;;;;;55.53;22.97;;;-2.70;99.90;;;;;;4366159;32;20149;-70
2021/01/12 05:14:13;;;;;;;55.83;23.43;;;-2.70;99.90;;;;;;4368029;32;20194;-69
2021/01/12 05:16:54;;;;;;;52.47;22.67;;;-2.60;99.90;;;;;;4367312;32;20156;-69
2021/01/12 05:19:24;;;;;;;58.73;23.23;;;-2.50;99.90;;;;;;4367394;32;20209;-69
2021/01/12 05:21:51;;;;;;;54.00;23.30;;;-2.50;99.90;;;;;;4365982;32;20538;-69
2021/01/12 05:24:21;;;;;;;55.67;23.73;;;-2.50;99.90;;;;;;4366070;32;20414;-70
2021/01/12 05:26:48;;;;;;;55.27;22.93;;;-2.50;99.90;;;;;;4367880;32;20148;-69
2021/01/12 05:29:15;;;;;;;55.83;23.37;;;-2.40;99.90;;;;;;4365867;32;20152;-69
2021/01/12 05:31:46;;;;;;;58.20;23.60;;;-2.30;99.90;;;;;;4367367;32;20210;-68
2021/01/12 05:34:16;;;;;;;56.53;22.33;;;-2.50;99.90;;;;;;4365758;32;20224;-69
2021/01/12 05:36:53;;;;;;;54.20;22.40;;;-2.50;99.90;;;;;;4365953;32;20206;-68
2021/01/12 05:39:23;;;;;;;58.17;23.90;;;-2.50;99.90;;;;;;4366104;32;20196;-69
2021/01/12 05:41:52;;;;;;;58.37;24.13;;;-2.50;99.90;;;;;;4367417;32;20164;-69
2021/01/12 05:44:22;;;;;;;53.73;22.37;;;-2.50;99.90;;;;;;4365892;32;20148;-69
2021/01/12 05:46:53;;;;;;;54.07;23.20;;;-2.50;99.90;;;;;;4365741;32;20152;-69
2021/01/12 05:49:22;;;;;;;55.60;23.43;;;-2.50;99.90;;;;;;4365850;32;20164;-69
2021/01/12 05:51:50;;;;;;;56.57;23.23;;;-2.50;99.90;;;;;;4367096;32;20200;-69
2021/01/12 05:54:31;;;;;;;57.33;23.47;;;-2.50;99.90;;;;;;4365482;32;20160;-69
2021/01/12 05:57:08;;;;;;;55.70;23.40;;;-2.50;99.90;;;;;;4365603;32;20176;-69
2021/01/12 05:59:37;;;;;;;56.80;23.60;;;-2.50;99.90;;;;;;4365316;32;20152;-71
2021/01/12 06:02:09;;;;;;;52.30;22.40;;;-2.50;99.90;;;;;;4366844;32;20380;-69
2021/01/12 06:04:37;;;;;;;57.17;23.73;;;-2.40;99.90;;;;;;4365332;32;20491;-70
2021/01/12 06:07:04;;;;;;;58.70;24.10;;;-2.30;99.90;;;;;;4366876;32;20152;-69
2021/01/12 06:09:32;;;;;;;54.80;23.47;;;-2.30;99.90;;;;;;4365348;32;20172;-69
2021/01/12 06:11:58;;;;;;;58.07;23.80;;;-2.40;99.90;;;;;;4367000;32;20188;-69
2021/01/12 06:14:29;;;;;;;54.60;23.67;;;-2.40;99.90;;;;;;4366650;32;20144;-69
2021/01/12 06:16:58;;;;;;;58.07;24.43;;;-2.40;99.90;;;;;;4366583;32;20427;-69
2021/01/12 06:19:27;;;;;;;57.33;23.80;;;-2.40;99.90;;;;;;4366329;32;20358;-69
2021/01/12 06:21:53;;;;;;;58.70;23.57;;;-2.40;99.90;;;;;;4366596;32;20384;-69
2021/01/12 06:24:38;;;;;;;58.50;24.07;;;-2.40;99.90;;;;;;4365427;32;20407;-69
2021/01/12 06:27:17;;;;;;;58.17;24.03;;;-2.30;99.90;;;;;;4366648;32;20153;-68
2021/01/12 06:29:46;;;;;;;59.70;24.43;;;-2.30;99.90;;;;;;4365994;32;20171;-69
2021/01/12 06:32:20;;;;;;;62.23;24.83;;;-2.30;99.90;;;;;;4365040;32;20519;-68
2021/01/12 06:35:03;;;;;;;57.60;23.77;;;-2.30;99.90;;;;;;4365243;32;20174;-70
2021/01/12 06:37:37;;;;;;;60.87;24.80;;;-2.30;99.90;;;;;;4366295;32;20227;-69
2021/01/12 06:40:07;;;;;;;55.43;23.17;;;-2.30;99.90;;;;;;4365183;32;20188;-69
2021/01/12 06:42:36;;;;;;;58.50;24.50;;;-2.30;99.90;;;;;;4364792;32;20467;-69
2021/01/12 06:45:04;;;;;;;57.97;23.90;;;-2.20;99.90;;;;;;4364831;32;20511;-69
2021/01/12 06:47:32;;;;;;;58.47;24.57;;;-2.20;99.90;;;;;;4366196;32;20176;-70
2021/01/12 06:50:13;;;;;;;52.30;23.13;;;-2.20;99.90;;;;;;4366294;32;20195;-70
2021/01/12 06:52:45;;;;;;;61.17;25.47;;;-2.20;99.90;;;;;;4365582;32;20203;-70
2021/01/12 06:55:13;;;;;;;61.73;23.43;;;-2.20;99.90;;;;;;4366021;32;20164;-70
2021/01/12 06:57:47;;;;;;;59.93;24.20;;;-2.20;99.90;;;;;;4366030;32;20222;-70
2021/01/12 07:00:16;;;;;;;55.30;24.23;;;-2.20;99.90;;;;;;4365299;32;20140;-71
2021/01/12 07:02:42;;;;;;;57.43;24.53;;;-2.10;99.90;;;;;;4364403;32;20204;-69
2021/01/12 07:05:11;;;;;;;56.53;24.03;;;-2.10;99.90;;;;;;4364551;32;20159;-70
2021/01/12 07:07:47;;;;;;;60.13;23.50;;;-2.10;99.90;;;;;;4366027;32;20143;-70
2021/01/12 07:10:15;;;;;;;57.20;24.07;;;-2.10;99.90;;;;;;4364537;32;20175;-69
2021/01/12 07:12:42;;;;;;;57.13;23.97;;;-2.10;99.90;;;;;;4365703;32;20144;-70
2021/01/12 07:15:14;;;;;;;51.93;23.13;;;-2.20;99.90;;;;;;4364464;32;20151;-70
2021/01/12 07:17:47;;;;;;;56.20;22.67;;;-2.20;99.90;;;;;;4363592;32;20175;-69
2021/01/12 07:20:20;;;;;;;54.67;22.03;;;-2.20;99.90;;;;;;4366849;32;20214;-70
2021/01/12 07:23:00;;;;;;;56.53;22.93;;;-2.10;99.90;;;;;;4365466;32;20207;-69
2021/01/12 07:25:36;;;;;;;53.30;22.30;;;-2.10;99.90;;;;;;4363822;32;20148;-71
2021/01/12 07:28:16;;;;;;;54.87;22.47;;;-2.10;99.90;;;;;;4367345;32;20164;-71
2021/01/12 07:30:47;;;;;;;54.30;23.03;;;-2.10;99.90;;;;;;4367887;32;20182;-70
2021/01/12 07:33:17;;;;;;;56.50;21.87;;;-2.10;99.90;;;;;;4370395;32;20195;-70
2021/01/12 07:35:48;;;;;;;54.50;22.43;;;-2.10;99.90;;;;;;4367265;32;20159;-70
2021/01/12 07:38:17;;;;;;;56.83;22.50;;;-2.10;99.90;;;;;;4364681;32;20169;-70
2021/01/12 07:40:44;;;;;;;55.83;21.20;;;-2.00;99.90;;;;;;4371974;32;20231;-69
2021/01/12 07:43:22;;;;;;;55.17;22.40;;;-2.00;99.90;;;;;;4367856;32;20226;-70
2021/01/12 07:45:50;;;;;;;55.23;23.27;;;-2.10;99.90;;;;;;4364348;32;20564;-70
2021/01/12 07:48:17;;;;;;;57.97;23.70;;;-2.00;99.90;;;;;;4363894;32;20156;-69
2021/01/12 07:50:49;;;;;;;56.03;23.27;;;-1.90;99.90;;;;;;4364256;32;20179;-68
2021/01/12 07:53:16;;;;;;;54.53;22.53;;;-1.80;99.90;;;;;;4364405;32;20198;-69
2021/01/12 07:55:44;;;;;;;50.83;21.60;;;-1.80;99.90;;;;;;4364056;32;20463;-68
2021/01/12 07:58:13;;;;;;;50.87;21.23;;;-1.70;99.90;;;;;;4365356;33;20407;-69
2021/01/12 08:00:40;;;;;;;56.80;22.23;;;-1.60;99.90;;;;;;4364332;33;20198;-69
2021/01/12 08:03:07;;;;;;;57.00;23.10;;;-1.70;99.90;;;;;;4361908;33;20208;-70
2021/01/12 08:05:34;;;;;;;49.00;21.13;;;-1.70;99.90;;;;;;4356882;33;20178;-68
2021/01/12 08:08:05;;;;;;;54.13;22.17;;;-1.60;99.90;;;;;;4349726;33;20156;-70
2021/01/12 08:10:33;;;;;;;52.93;22.63;;;-1.50;99.90;;;;;;4363616;32;20203;-70
2021/01/12 08:13:07;;;;;;;50.10;21.47;;;-1.60;99.90;;;;;;4373357;32;20152;-69
2021/01/12 08:15:36;;;;;;;49.57;21.07;;;-1.50;99.90;;;;;;4374087;32;20209;-69
2021/01/12 08:18:21;;;;;;;50.40;21.10;;;-1.50;99.90;;;;;;4365183;33;20167;-70
2021/01/12 08:20:54;;;;;;;44.40;19.87;;;-1.40;99.90;;;;;;4364000;33;20441;-70
2021/01/12 08:23:21;;;;;;;49.10;21.63;;;-1.50;99.90;;;;;;4365394;33;20153;-70
2021/01/12 08:25:49;;;;;;;50.53;20.20;;;-1.50;99.90;;;;;;4363723;33;20563;-68
2021/01/12 08:28:15;;;;;;;44.57;19.40;;;-1.50;99.90;;;;;;4363866;33;20203;-69
2021/01/12 08:30:43;;;;;;;51.80;20.33;;;-1.50;99.90;;;;;;4364519;32;20157;-69
2021/01/12 08:33:27;;;;;;;42.50;18.93;;;-1.50;99.90;;;;;;4363868;33;20510;-70
2021/01/12 08:35:54;;;;;;;46.70;19.43;;;-1.30;99.90;;;;;;4365542;33;20171;-68
2021/01/12 08:38:22;;;;;;;45.67;20.07;;;-1.30;99.90;;;;;;4364115;33;20546;-70
2021/01/12 08:40:50;;;;;;;44.93;19.43;;;-1.40;99.90;;;;;;4363786;33;20519;-69
2021/01/12 08:43:18;;;;;;;41.50;19.07;;;-1.40;99.90;;;;;;4365237;32;20229;-70
2021/01/12 08:45:48;;;;;;;45.93;19.37;;;-1.40;99.90;;;;;;4368390;32;20408;-68
2021/01/12 08:48:17;;;;;;;45.47;18.47;;;-1.40;99.90;;;;;;4365623;32;20172;-70
2021/01/12 08:50:45;;;;;;;45.47;18.93;;;-1.40;99.90;;;;;;4379026;32;20219;-70
2021/01/12 08:53:21;;;;;;;45.43;18.53;;;-1.30;99.90;;;;;;4378237;32;20231;-69
2021/01/12 08:55:48;;;;;;;46.60;17.90;;;-1.20;99.90;;;;;;4376908;32;20181;-69
2021/01/12 08:58:14;;;;;;;47.13;18.60;;;-1.10;99.90;;;;;;4381204;32;20175;-69
2021/01/12 09:00:42;;;;;;;43.07;18.67;;;-1.00;99.90;;;;;;4382687;32;20167;-69
2021/01/12 09:03:13;;;;;;;40.47;18.30;;;-0.90;99.90;;;;;;4381287;32;20174;-69
2021/01/12 09:05:41;;;;;;;42.77;18.60;;;-0.90;99.90;;;;;;4382506;32;20206;-71
2021/01/12 09:08:10;;;;;;;42.10;18.03;;;-0.90;99.90;;;;;;4382386;32;20164;-70
2021/01/12 09:10:41;;;;;;;41.87;17.67;;;-0.80;99.90;;;;;;4380971;32;20225;-71
2021/01/12 09:13:09;;;;;;;41.27;17.30;;;-0.80;99.90;;;;;;4382405;32;20217;-69
2021/01/12 09:15:41;;;;;;;42.23;17.60;;;-0.60;99.90;;;;;;4380930;32;20547;-70
2021/01/12 09:18:26;;;;;;;40.43;18.30;;;-0.40;99.90;;;;;;4378825;32;20203;-70
2021/01/12 09:20:54;;;;;;;40.03;16.67;;;-0.30;99.90;;;;;;4365857;32;20203;-71
2021/01/12 09:23:21;;;;;;;40.10;17.30;;;-0.20;99.60;;;;;;4366993;32;20408;-70
2021/01/12 09:26:01;;;;;;;40.93;17.47;;;0.00;99.00;;;;;;4365931;32;20211;-70
2021/01/12 09:28:32;;;;;;;33.83;15.23;;;-0.10;98.10;;;;;;4369276;32;20155;-70
2021/01/12 09:31:08;;;;;;;36.57;15.90;;;0.00;97.60;;;;;;4366336;32;20158;-69
2021/01/12 09:33:36;;;;;;;35.33;15.93;;;-0.10;97.50;;;;;;4374587;32;20195;-68
2021/01/12 09:36:03;;;;;;;36.47;16.10;;;0.00;97.90;;;;;;4355507;32;20164;-69
2021/01/12 09:38:36;;;;;;;38.33;15.97;;;0.00;97.50;;;;;;4365780;32;20188;-69
2021/01/12 09:41:03;;;;;;;35.17;15.67;;;0.00;97.00;;;;;;4367253;32;20431;-70
2021/01/12 09:43:29;;;;;;;36.07;15.33;;;0.00;96.90;;;;;;4365771;32;20168;-68
2021/01/12 09:45:56;;;;;;;34.77;15.53;;;0.00;96.90;;;;;;4366955;32;20180;-68
2021/01/12 09:48:23;;;;;;;33.97;14.93;;;0.00;96.60;;;;;;4365641;32;20467;-69
2021/01/12 09:50:50;;;;;;;30.07;13.97;;;0.20;96.50;;;;;;4366797;32;20148;-69
2021/01/12 09:53:17;;;;;;;34.07;14.60;;;0.30;96.30;;;;;;4364837;32;20243;-70
2021/01/12 09:55:44;;;;;;;34.33;14.03;;;0.40;95.30;;;;;;4366275;32;20170;-70
2021/01/12 09:58:27;;;;;;;31.20;14.07;;;0.40;94.70;;;;;;4366169;32;20159;-67
2021/01/12 10:00:55;;;;;;;33.10;14.77;;;0.50;95.10;;;;;;4365097;33;20203;-67
2021/01/12 10:03:22;;;;;;;33.17;13.87;;;0.60;94.90;;;;;;4365328;32;20147;-66
2021/01/12 10:05:48;;;;;;;28.83;13.60;;;0.50;94.30;;;;;;4366321;32;20431;-68
2021/01/12 10:08:15;;;;;;;31.30;13.20;;;0.60;94.20;;;;;;4365365;32;20152;-68
2021/01/12 10:10:42;;;;;;;30.33;13.00;;;0.60;93.90;;;;;;4366735;32;20154;-70
2021/01/12 10:13:08;;;;;;;29.70;13.27;;;0.60;93.70;;;;;;4365378;32;20151;-71
2021/01/12 10:15:34;;;;;;;30.13;12.87;;;0.50;93.60;;;;;;4365234;32;20202;-69
2021/01/12 10:18:01;;;;;;;32.47;13.63;;;0.50;93.80;;;;;;4366447;32;20160;-69
2021/01/12 10:20:28;;;;;;;31.17;14.10;;;0.50;93.50;;;;;;4366501;32;20203;-70
2021/01/12 10:22:54;;;;;;;28.87;13.73;;;0.60;93.90;;;;;;4365044;32;20170;-69
2021/01/12 10:25:21;;;;;;;27.20;13.30;;;0.70;93.40;;;;;;4365213;32;20219;-70
2021/01/12 10:27:48;;;;;;;30.20;13.13;;;0.90;92.90;;;;;;4365177;32;20144;-69
2021/01/12 10:30:15;;;;;;;29.13;13.63;;;1.00;92.90;;;;;;4366496;32;20172;-69
2021/01/12 10:32:46;;;;;;;28.63;12.70;;;1.20;92.30;;;;;;4366517;32;20215;-69
2021/01/12 10:35:14;;;;;;;26.60;12.20;;;1.10;91.90;;;;;;4366412;32;20478;-68
2021/01/12 10:37:43;;;;;;;27.30;12.67;;;1.00;92.00;;;;;;4366278;32;20192;-69
2021/01/12 10:40:11;;;;;;;28.03;13.23;;;0.90;92.20;;;;;;4364307;32;20172;-70
2021/01/12 10:42:42;;;;;;;28.77;13.00;;;1.10;92.10;;;;;;4364687;32;20178;-69
2021/01/12 10:45:10;;;;;;;26.00;12.50;;;1.20;91.80;;;;;;4366064;32;20455;-69
2021/01/12 10:47:43;;;;;;;30.23;13.17;;;1.10;91.80;;;;;;4365295;32;20223;-69
2021/01/12 10:50:15;;;;;;;28.67;12.97;;;1.10;91.90;;;;;;4366193;32;20199;-70
2021/01/12 10:52:42;;;;;;;28.73;12.77;;;1.10;91.70;;;;;;4365386;32;20187;-70
2021/01/12 10:55:10;;;;;;;34.07;13.70;;;1.20;92.40;;;;;;4364673;32;20144;-69
2021/01/12 10:57:37;;;;;;;26.13;12.63;;;1.30;91.70;;;;;;4364655;32;20195;-70
2021/01/12 11:00:08;;;;;;;31.47;13.73;;;1.30;91.80;;;;;;4366118;32;20155;-69
2021/01/12 11:02:35;;;;;;;29.47;12.97;;;1.40;91.40;;;;;;4365547;32;20386;-70
2021/01/12 11:05:03;;;;;;;31.67;13.57;;;1.30;91.00;;;;;;4364464;32;20177;-70
2021/01/12 11:07:31;;;;;;;30.83;13.53;;;1.30;90.90;;;;;;4364475;32;20182;-70
2021/01/12 11:09:59;;;;;;;29.30;12.97;;;1.40;91.00;;;;;;4365985;32;20152;-71
2021/01/12 11:12:26;;;;;;;30.33;13.83;;;1.50;91.00;;;;;;4364401;32;20279;-71
2021/01/12 11:14:55;;;;;;;27.10;12.50;;;1.50;90.60;;;;;;4362090;32;20238;-71
2021/01/12 11:17:22;;;;;;;28.00;12.93;;;1.50;90.60;;;;;;4359653;32;20199;-74
2021/01/12 11:19:52;;;;;;;32.07;13.63;;;1.40;90.60;;;;;;4373393;32;20219;-72
2021/01/12 11:22:26;;;;;;;28.17;12.73;;;1.30;90.90;;;;;;4364318;32;20164;-73
2021/01/12 11:24:55;;;;;;;33.13;13.50;;;1.30;90.80;;;;;;4365079;32;20415;-73
2021/01/12 11:27:22;;;;;;;31.57;13.23;;;1.40;91.10;;;;;;4363972;32;20558;-72
2021/01/12 11:29:49;;;;;;;33.10;14.00;;;1.40;90.80;;;;;;4364451;32;20156;-72
2021/01/12 11:32:16;;;;;;;25.73;12.33;;;1.40;91.00;;;;;;4366340;32;20176;-72
2021/01/12 11:34:43;;;;;;;28.77;12.73;;;1.40;90.70;;;;;;4371306;32;20182;-72
2021/01/12 11:37:11;;;;;;;31.03;13.40;;;1.40;90.90;;;;;;4369275;32;20423;-71
2021/01/12 11:39:38;;;;;;;28.90;12.70;;;1.30;90.80;;;;;;4364097;32;20174;-71
2021/01/12 11:42:08;;;;;;;27.60;12.33;;;1.40;90.70;;;;;;4365510;32;20470;-72
2021/01/12 11:44:34;;;;;;;28.37;12.97;;;1.50;90.80;;;;;;4364422;32;20182;-71
2021/01/12 11:47:01;;;;;;;31.40;13.40;;;1.40;90.60;;;;;;4352260;33;20175;-70
2021/01/12 11:49:28;;;;;;;27.90;12.43;;;1.30;91.20;;;;;;4365311;32;20164;-71
2021/01/12 11:51:54;;;;;;;27.63;12.47;;;1.20;91.00;;;;;;4365975;32;20172;-70
2021/01/12 11:54:33;;;;;;;29.83;12.83;;;1.20;91.40;;;;;;4364439;32;20186;-71
2021/01/12 12:00:56;;;;;;;28.20;12.37;;;1.20;91.40;;;;;;4306722;33;20181;-71
2021/01/12 12:04:30;;;;;;;29.73;12.43;;;1.10;91.90;;;;;;4259611;33;20155;-70
2021/01/12 12:07:47;;;;;;;30.93;12.57;;;1.20;91.60;;;;;;4229325;33;20217;-71
2021/01/12 12:10:13;;;;;;;29.27;13.20;;;1.30;92.20;;;;;;4274408;33;20177;-69
2021/01/12 12:12:40;;;;;;;29.83;13.43;;;1.30;91.70;;;;;;4318556;33;20149;-69
2021/01/12 12:15:08;;;;;;;30.90;13.43;;;1.40;91.90;;;;;;4317626;33;20354;-76
2021/01/12 12:17:34;;;;;;;30.30;12.77;;;1.50;91.70;;;;;;4317779;33;20546;-76
2021/01/12 12:20:01;;;;;;;29.23;12.97;;;1.50;91.70;;;;;;4319929;33;20588;-72
2021/01/12 12:22:28;;;;;;;30.70;13.03;;;1.50;91.50;;;;;;4320943;33;20180;-72
2021/01/12 12:24:55;;;;;;;29.47;12.90;;;1.50;91.20;;;;;;4320326;33;20475;-70
2021/01/12 12:27:22;;;;;;;28.37;12.80;;;1.40;91.20;;;;;;4321261;33;20639;-72
2021/01/12 12:29:49;;;;;;;29.80;12.73;;;1.40;91.50;;;;;;4308605;33;20444;-72
2021/01/12 12:32:15;;;;;;;30.97;13.07;;;1.40;91.40;;;;;;4317932;33;20586;-71
2021/01/12 12:34:42;;;;;;;29.77;12.97;;;1.40;91.50;;;;;;4319416;33;20530;-72
2021/01/12 12:37:10;;;;;;;27.90;12.43;;;1.40;91.40;;;;;;4335954;33;20463;-71
2021/01/12 12:39:37;;;;;;;29.10;12.60;;;1.30;91.60;;;;;;4367766;32;20160;-72
2021/01/12 12:42:05;;;;;;;31.03;13.07;;;1.40;91.70;;;;;;4367754;32;20502;-72